CheckWX is a tool to help pilots better visualize weather data.  It is not intended as a substitute for an official pre-flight weather briefing.

03:37:46 UTC

KLOU METAR
Bowman Field Airport
Louisville, Kentucky, USA
Current

45 mins ago

KLOU 260253Z 19006KT 10SM BKN060 27/18 A3006 RMK AO2 SLP172 T02670178 53001
Observed
May-26 @ 02:53 UTC
Wind
  • 190° at 6 KTS
Visibility
10 SM
Flight Rules
VFR
Cloud Levels
  • Broken at 6,000' AGL
Temperature
27°C / 81°F
Dewpoint
18°C / 64°F
Heat Index
28°C / 83°F
Humidity
58%
Altimeter
30.06" Hg
Pressure
1017.92 hPa
Previous

2 hours ago

KLOU 260153Z 18006KT 10SM CLR 27/18 A3005 RMK AO2 SLP169 T02670178
Observed
May-26 @ 01:53 UTC
Wind
  • 180° at 6 KTS
Visibility
10 SM
Flight Rules
VFR
Cloud Levels
  • Clear skies
Temperature
27°C / 81°F
Dewpoint
18°C / 64°F
Heat Index
28°C / 83°F
Humidity
58%
Altimeter
30.05" Hg
Pressure
1017.62 hPa
Previous

3 hours ago

KLOU 260053Z 20008KT 10SM CLR 28/18 A3005 RMK AO2 SLP170 T02830178
Observed
May-26 @ 00:53 UTC
Wind
  • 200° at 8 KTS
Visibility
10 SM
Flight Rules
VFR
Cloud Levels
  • Clear skies
Temperature
28°C / 82°F
Dewpoint
18°C / 64°F
Heat Index
29°C / 84°F
Humidity
55%
Altimeter
30.05" Hg
Pressure
1017.62 hPa